createdAt,value
2018-09-29T00:02:12.423Z,11.87
2018-09-29T00:04:41.288Z,11.82
2018-09-29T00:07:10.072Z,11.77
2018-09-29T00:09:38.933Z,11.71
2018-09-29T00:12:07.852Z,11.64
2018-09-29T00:14:36.637Z,11.59
2018-09-29T00:17:05.555Z,11.52
2018-09-29T00:19:34.380Z,11.49
2018-09-29T00:22:03.346Z,11.46
2018-09-29T00:24:32.247Z,11.35
2018-09-29T00:27:01.068Z,11.28
2018-09-29T00:29:30.097Z,11.26
2018-09-29T00:31:58.937Z,11.17
2018-09-29T00:34:27.779Z,11.12
2018-09-29T00:36:56.560Z,11.08
2018-09-29T00:39:25.355Z,11.03
2018-09-29T00:41:54.167Z,11.01
2018-09-29T00:44:22.980Z,11.04
2018-09-29T00:46:51.796Z,11.07
2018-09-29T00:49:20.652Z,11.06
2018-09-29T00:51:49.475Z,11.09
2018-09-29T00:54:18.377Z,11.10
2018-09-29T00:56:47.240Z,11.14
2018-09-29T00:59:16.047Z,11.21
2018-09-29T01:01:44.896Z,11.24
2018-09-29T01:04:13.767Z,11.24
2018-09-29T01:06:42.570Z,11.18
2018-09-29T01:09:11.366Z,11.11
2018-09-29T01:11:40.483Z,11.17
2018-09-29T01:14:09.660Z,11.24
2018-09-29T01:16:38.448Z,11.30
2018-09-29T01:19:07.307Z,11.31
2018-09-29T01:21:36.125Z,11.27
2018-09-29T01:24:04.947Z,11.34
2018-09-29T01:26:33.837Z,11.44
2018-09-29T01:29:02.723Z,11.50
2018-09-29T01:31:31.605Z,11.51
2018-09-29T01:34:00.464Z,11.49
2018-09-29T01:36:29.354Z,11.48
2018-09-29T01:38:58.167Z,11.47
2018-09-29T01:41:27.036Z,11.46
2018-09-29T01:43:55.826Z,11.45
2018-09-29T01:46:24.699Z,11.41
2018-09-29T01:48:53.568Z,11.45
2018-09-29T01:51:22.336Z,11.49
2018-09-29T01:53:57.640Z,11.54
2018-09-29T01:56:26.408Z,11.50
2018-09-29T01:58:55.239Z,11.45
2018-09-29T02:01:24.107Z,11.49
2018-09-29T02:03:52.895Z,11.52
2018-09-29T02:06:21.683Z,11.60
2018-09-29T02:08:50.469Z,11.63
2018-09-29T02:11:19.304Z,11.57
2018-09-29T02:13:48.153Z,11.54
2018-09-29T02:16:17.005Z,11.57
2018-09-29T02:18:45.851Z,11.56
2018-09-29T02:21:14.735Z,11.57
2018-09-29T02:23:43.556Z,11.59
2018-09-29T02:26:12.424Z,11.58
2018-09-29T02:28:41.663Z,11.58
2018-09-29T02:31:10.542Z,11.60
2018-09-29T02:33:39.342Z,11.66
2018-09-29T02:36:08.167Z,11.72
2018-09-29T02:38:37.010Z,11.77
2018-09-29T02:41:06.000Z,11.76
2018-09-29T02:43:34.828Z,11.79
2018-09-29T02:46:03.601Z,11.79
2018-09-29T02:48:32.537Z,11.76
2018-09-29T02:51:01.376Z,11.79
2018-09-29T02:53:30.228Z,11.80
2018-09-29T02:55:59.084Z,11.80
2018-09-29T02:58:27.888Z,11.78
2018-09-29T03:00:56.726Z,11.76
2018-09-29T03:03:25.517Z,11.75
2018-09-29T03:05:54.323Z,11.69
2018-09-29T03:08:23.184Z,11.65
2018-09-29T03:10:51.991Z,11.58
2018-09-29T03:13:20.891Z,11.57
2018-09-29T03:15:50.515Z,11.57
2018-09-29T03:18:19.344Z,11.54
2018-09-29T03:20:48.232Z,11.52
2018-09-29T03:23:17.100Z,11.50
2018-09-29T03:25:46.108Z,11.43
2018-09-29T03:28:15.185Z,11.40
2018-09-29T03:30:43.996Z,11.38
2018-09-29T03:33:12.816Z,11.36
2018-09-29T03:35:41.652Z,11.32
2018-09-29T03:38:10.508Z,11.30
2018-09-29T03:40:39.352Z,11.26
2018-09-29T03:43:08.243Z,11.21
2018-09-29T03:45:37.180Z,11.16
2018-09-29T03:48:06.064Z,11.07
2018-09-29T03:50:34.889Z,11.04
2018-09-29T03:53:03.849Z,11.01
2018-09-29T03:55:32.830Z,10.99
2018-09-29T03:58:01.649Z,10.95
2018-09-29T04:00:30.494Z,10.92
2018-09-29T04:02:59.410Z,10.96
2018-09-29T04:05:28.260Z,10.91
2018-09-29T04:07:57.052Z,10.87
2018-09-29T04:10:25.844Z,10.89
2018-09-29T04:12:54.762Z,10.91
2018-09-29T04:15:23.655Z,10.93
2018-09-29T04:17:52.499Z,10.93
2018-09-29T04:20:21.362Z,10.96
2018-09-29T04:22:50.170Z,10.95
2018-09-29T04:25:18.961Z,10.98
2018-09-29T04:27:47.735Z,10.94
2018-09-29T04:30:16.564Z,10.92
2018-09-29T04:32:45.503Z,10.94
2018-09-29T04:35:14.396Z,10.91
2018-09-29T04:37:43.273Z,10.94
2018-09-29T04:40:12.483Z,11.02
2018-09-29T04:42:41.394Z,10.99
2018-09-29T04:45:10.240Z,10.95
2018-09-29T04:47:39.331Z,10.99
2018-09-29T04:50:08.088Z,11.05
2018-09-29T04:52:36.873Z,11.12
2018-09-29T04:55:05.971Z,11.19
2018-09-29T04:57:34.736Z,11.23
2018-09-29T05:00:04.947Z,11.29
2018-09-29T05:02:33.747Z,11.30
2018-09-29T05:05:02.557Z,11.33
2018-09-29T05:07:31.364Z,11.44
2018-09-29T05:10:00.239Z,11.48
2018-09-29T05:12:29.004Z,11.58
2018-09-29T05:14:57.861Z,11.66
2018-09-29T05:17:26.760Z,11.78
2018-09-29T05:19:55.671Z,11.87
2018-09-29T05:22:24.532Z,12.02
2018-09-29T05:24:53.389Z,12.08
2018-09-29T05:27:22.415Z,12.16
2018-09-29T05:29:51.204Z,12.24
2018-09-29T05:32:20.085Z,12.24
2018-09-29T05:34:48.959Z,12.35
2018-09-29T05:37:17.768Z,12.41
2018-09-29T05:39:53.406Z,12.52
2018-09-29T05:42:22.389Z,12.53
2018-09-29T05:44:51.307Z,12.64
2018-09-29T05:47:20.424Z,12.66
2018-09-29T05:49:49.241Z,12.73
2018-09-29T05:52:18.808Z,12.71
2018-09-29T05:54:47.600Z,12.65
2018-09-29T05:57:16.493Z,12.67
2018-09-29T05:59:45.352Z,12.70
2018-09-29T06:02:14.171Z,12.71
2018-09-29T06:04:42.965Z,12.73
2018-09-29T06:07:11.901Z,12.88
2018-09-29T06:09:40.825Z,13.07
2018-09-29T06:12:09.656Z,13.22
2018-09-29T06:14:38.512Z,13.31
2018-09-29T06:17:07.315Z,13.49
2018-09-29T06:19:36.193Z,13.60
2018-09-29T06:22:05.075Z,13.68
2018-09-29T06:24:33.899Z,13.82
2018-09-29T06:27:02.879Z,14.05
2018-09-29T06:29:31.692Z,14.20
2018-09-29T06:32:00.653Z,14.35
2018-09-29T06:34:31.449Z,14.51
2018-09-29T06:37:00.381Z,14.55
2018-09-29T06:39:29.218Z,14.48
2018-09-29T06:41:58.357Z,14.52
2018-09-29T06:44:27.308Z,14.69
2018-09-29T06:46:56.135Z,14.83
2018-09-29T06:49:24.985Z,14.98
2018-09-29T06:51:54.040Z,15.12
2018-09-29T06:54:22.928Z,15.27
2018-09-29T06:56:52.035Z,15.38
2018-09-29T06:59:20.828Z,15.34
2018-09-29T07:01:49.664Z,15.38
2018-09-29T07:04:18.574Z,15.52
2018-09-29T07:06:49.196Z,15.62
2018-09-29T07:09:17.987Z,15.44
2018-09-29T07:11:46.883Z,15.28
2018-09-29T07:14:15.763Z,15.29
2018-09-29T07:16:44.743Z,15.31
2018-09-29T07:19:14.015Z,15.30
2018-09-29T07:21:42.909Z,15.40
2018-09-29T07:24:11.825Z,15.55
2018-09-29T07:26:40.732Z,15.72
2018-09-29T07:29:09.651Z,15.89
2018-09-29T07:31:38.671Z,15.95
2018-09-29T07:34:08.117Z,15.98
2018-09-29T07:36:36.958Z,16.13
2018-09-29T07:39:08.443Z,16.30
2018-09-29T07:41:37.402Z,16.47
2018-09-29T07:44:06.338Z,16.49
2018-09-29T07:46:35.154Z,16.37
2018-09-29T07:49:04.047Z,16.13
2018-09-29T07:51:33.179Z,16.09
2018-09-29T07:54:02.072Z,16.13
2018-09-29T07:56:30.995Z,16.32
2018-09-29T07:59:00.078Z,16.54
2018-09-29T08:01:29.046Z,16.62
2018-09-29T08:03:57.862Z,16.77
2018-09-29T08:06:26.793Z,16.95
2018-09-29T08:08:55.817Z,17.04
2018-09-29T08:11:24.667Z,16.87
2018-09-29T08:13:53.609Z,16.94
2018-09-29T08:16:22.445Z,17.01
2018-09-29T08:18:51.238Z,17.03
2018-09-29T08:21:20.277Z,17.07
2018-09-29T08:23:49.505Z,17.02
2018-09-29T08:26:18.680Z,17.06
2018-09-29T08:28:47.482Z,17.15
2018-09-29T08:31:16.521Z,17.19
2018-09-29T08:33:45.297Z,17.24
2018-09-29T08:36:14.163Z,17.34
2018-09-29T08:38:43.057Z,17.39
2018-09-29T08:41:11.871Z,17.46
2018-09-29T08:43:40.684Z,17.57
2018-09-29T08:46:09.659Z,17.64
2018-09-29T08:48:38.457Z,17.52
2018-09-29T08:51:07.299Z,17.38
2018-09-29T08:53:36.217Z,17.41
2018-09-29T08:56:05.186Z,17.40
2018-09-29T08:58:33.993Z,17.43
2018-09-29T09:01:03.024Z,17.44
2018-09-29T09:03:31.943Z,17.41
2018-09-29T09:06:00.878Z,17.39
2018-09-29T09:08:29.676Z,17.45
2018-09-29T09:10:58.513Z,17.53
2018-09-29T09:13:27.379Z,17.62
2018-09-29T09:15:56.212Z,17.81
2018-09-29T09:18:25.008Z,17.87
2018-09-29T09:20:53.839Z,17.87
2018-09-29T09:23:22.741Z,18.02
2018-09-29T09:25:51.589Z,18.24
2018-09-29T09:28:20.358Z,18.46
2018-09-29T09:30:49.239Z,18.60
2018-09-29T09:33:18.056Z,18.77
2018-09-29T09:35:46.876Z,18.97
2018-09-29T09:38:15.810Z,19.14
2018-09-29T09:40:44.740Z,19.30
2018-09-29T09:43:13.547Z,19.42
2018-09-29T09:45:42.450Z,19.61
2018-09-29T09:48:11.287Z,19.66
2018-09-29T09:50:40.136Z,19.60
2018-09-29T09:53:08.961Z,19.63
2018-09-29T09:55:37.776Z,19.64
2018-09-29T09:58:06.808Z,19.66
2018-09-29T10:00:40.762Z,19.80
2018-09-29T10:03:14.684Z,19.79
2018-09-29T10:05:43.683Z,19.73
2018-09-29T10:08:12.484Z,19.83
2018-09-29T10:10:42.398Z,19.84
2018-09-29T10:13:11.279Z,19.86
2018-09-29T10:15:40.104Z,19.84
2018-09-29T10:18:08.971Z,19.76
2018-09-29T10:20:37.759Z,19.83
2018-09-29T10:23:06.805Z,20.01
2018-09-29T10:25:35.597Z,19.98
2018-09-29T10:28:04.492Z,19.90
2018-09-29T10:30:33.315Z,19.90
2018-09-29T10:33:02.136Z,19.78
2018-09-29T10:35:30.933Z,19.72
2018-09-29T10:38:00.149Z,19.81
2018-09-29T10:40:28.984Z,19.71
2018-09-29T10:42:57.862Z,19.86
2018-09-29T10:45:26.741Z,19.94
2018-09-29T10:47:55.561Z,19.93
2018-09-29T10:50:24.510Z,19.98
2018-09-29T10:52:53.334Z,19.81
2018-09-29T10:55:22.431Z,19.70
2018-09-29T10:57:51.273Z,19.83
2018-09-29T11:00:20.161Z,19.93
2018-09-29T11:02:49.068Z,20.02
2018-09-29T11:05:17.900Z,20.07
2018-09-29T11:07:46.680Z,20.22
2018-09-29T11:10:15.482Z,20.24
2018-09-29T11:12:44.497Z,20.25
2018-09-29T11:15:13.500Z,20.25
2018-09-29T11:17:42.373Z,20.22
2018-09-29T11:20:11.227Z,20.20
2018-09-29T11:22:40.055Z,20.19
2018-09-29T11:25:09.340Z,20.12
2018-09-29T11:27:38.307Z,20.04
2018-09-29T11:30:07.689Z,20.10
2018-09-29T11:32:36.557Z,20.11
2018-09-29T11:35:05.646Z,20.06
2018-09-29T11:37:34.484Z,19.98
2018-09-29T11:40:03.253Z,19.92
2018-09-29T11:42:32.188Z,19.86
2018-09-29T11:45:01.013Z,19.87
2018-09-29T11:47:29.840Z,19.94
2018-09-29T11:49:58.646Z,19.96
2018-09-29T11:52:27.528Z,19.97
2018-09-29T11:54:57.019Z,20.02
2018-09-29T11:57:25.906Z,20.08
2018-09-29T11:59:54.803Z,20.10
2018-09-29T12:02:23.689Z,20.12
2018-09-29T12:04:52.644Z,20.21
2018-09-29T12:07:21.592Z,20.30
2018-09-29T12:09:50.529Z,20.27
2018-09-29T12:12:20.048Z,20.30
2018-09-29T12:14:49.344Z,20.30
2018-09-29T12:17:18.291Z,20.32
2018-09-29T12:19:47.189Z,20.29
2018-09-29T12:22:16.091Z,20.29
2018-09-29T12:24:45.164Z,20.41
2018-09-29T12:27:14.036Z,20.46
2018-09-29T12:29:43.295Z,20.56
2018-09-29T12:32:12.329Z,20.65
2018-09-29T12:34:41.232Z,20.71
2018-09-29T12:37:10.112Z,20.80
2018-09-29T12:39:39.017Z,21.00
2018-09-29T12:42:07.864Z,21.13
2018-09-29T12:44:36.766Z,21.25
2018-09-29T12:47:06.090Z,21.16
2018-09-29T12:49:35.295Z,21.18
2018-09-29T12:52:04.285Z,21.16
2018-09-29T12:54:33.277Z,21.15
2018-09-29T12:57:02.079Z,21.19
2018-09-29T12:59:30.879Z,21.28
2018-09-29T13:01:59.699Z,21.36
2018-09-29T13:04:28.604Z,21.41
2018-09-29T13:06:57.528Z,21.36
2018-09-29T13:09:26.523Z,21.23
2018-09-29T13:11:55.372Z,21.15
2018-09-29T13:14:24.236Z,21.06
2018-09-29T13:16:53.189Z,21.00
2018-09-29T13:19:22.228Z,21.01
2018-09-29T13:21:51.064Z,21.09
2018-09-29T13:24:20.041Z,21.08
2018-09-29T13:26:48.932Z,21.06
2018-09-29T13:29:17.704Z,21.07
2018-09-29T13:31:46.506Z,21.08
2018-09-29T13:34:15.515Z,21.16
2018-09-29T13:36:44.325Z,21.25
2018-09-29T13:39:13.199Z,21.46
2018-09-29T13:41:42.060Z,21.48
2018-09-29T13:44:10.902Z,21.49
2018-09-29T13:46:39.646Z,21.51
2018-09-29T13:49:08.428Z,21.48
2018-09-29T13:51:37.261Z,21.49
2018-09-29T13:54:06.230Z,21.32
2018-09-29T13:56:35.076Z,21.26
2018-09-29T13:59:03.974Z,21.12
2018-09-29T14:01:32.820Z,21.17
2018-09-29T14:04:01.689Z,21.14
2018-09-29T14:06:30.553Z,21.16
2018-09-29T14:08:59.393Z,21.11
2018-09-29T14:11:28.322Z,21.06
2018-09-29T14:13:57.252Z,21.00
2018-09-29T14:16:26.140Z,20.92
2018-09-29T14:18:54.924Z,20.78
2018-09-29T14:21:23.820Z,20.70
2018-09-29T14:23:52.656Z,20.70
2018-09-29T14:26:21.420Z,20.68
2018-09-29T14:28:50.204Z,20.57
2018-09-29T14:31:18.998Z,20.50
2018-09-29T14:33:47.825Z,20.55
2018-09-29T14:36:16.667Z,20.67
2018-09-29T14:38:45.485Z,20.68
2018-09-29T14:41:17.330Z,20.68
2018-09-29T14:43:46.105Z,20.59
2018-09-29T14:46:15.021Z,20.62
2018-09-29T14:48:43.799Z,20.66
2018-09-29T14:51:12.734Z,20.68
2018-09-29T14:53:41.713Z,20.62
2018-09-29T14:56:10.507Z,20.58
2018-09-29T14:58:39.400Z,20.41
2018-09-29T15:01:08.371Z,20.29
2018-09-29T15:03:37.216Z,20.19
2018-09-29T15:06:05.989Z,20.17
2018-09-29T15:08:34.956Z,20.16
2018-09-29T15:11:03.810Z,20.17
2018-09-29T15:13:32.677Z,20.07
2018-09-29T15:16:01.513Z,20.05
2018-09-29T15:18:30.394Z,19.97
2018-09-29T15:20:59.252Z,19.92
2018-09-29T15:23:28.149Z,19.90
2018-09-29T15:25:57.029Z,19.81
2018-09-29T15:28:26.121Z,19.69
2018-09-29T15:30:54.960Z,19.64
2018-09-29T15:33:23.882Z,19.59
2018-09-29T15:35:52.725Z,19.56
2018-09-29T15:38:21.559Z,19.52
2018-09-29T15:40:50.387Z,19.49
2018-09-29T15:43:19.216Z,19.36
2018-09-29T15:45:48.625Z,19.28
2018-09-29T15:48:17.701Z,19.24
2018-09-29T15:50:46.509Z,19.18
2018-09-29T15:53:15.294Z,19.15
2018-09-29T15:55:44.161Z,19.09
2018-09-29T15:58:13.196Z,19.01
2018-09-29T16:00:42.034Z,18.94
2018-09-29T16:03:10.861Z,18.85
2018-09-29T16:05:39.728Z,18.73
2018-09-29T16:08:08.660Z,18.58
2018-09-29T16:10:37.471Z,18.46
2018-09-29T16:13:06.404Z,18.35
2018-09-29T16:15:35.239Z,18.24
2018-09-29T16:18:04.036Z,18.16
2018-09-29T16:20:32.833Z,18.10
2018-09-29T16:23:01.685Z,18.03
2018-09-29T16:25:30.994Z,18.00
2018-09-29T16:27:59.832Z,17.91
2018-09-29T16:30:28.777Z,17.80
2018-09-29T16:32:57.709Z,17.75
2018-09-29T16:35:26.572Z,17.73
2018-09-29T16:37:55.370Z,17.62
2018-09-29T16:40:24.268Z,17.51
2018-09-29T16:42:53.069Z,17.46
2018-09-29T16:45:22.066Z,17.46
2018-09-29T16:47:51.035Z,17.37
2018-09-29T16:50:20.058Z,17.31
2018-09-29T16:52:48.962Z,17.28
2018-09-29T16:55:17.797Z,17.19
2018-09-29T16:57:46.686Z,17.14
2018-09-29T17:00:18.274Z,17.13
2018-09-29T17:02:47.069Z,17.11
2018-09-29T17:05:15.897Z,17.06
2018-09-29T17:07:44.772Z,16.88
2018-09-29T17:10:13.682Z,16.78
2018-09-29T17:12:42.708Z,16.85
2018-09-29T17:15:11.624Z,16.79
2018-09-29T17:17:40.549Z,16.79
2018-09-29T17:20:09.440Z,16.80
2018-09-29T17:22:38.360Z,16.78
2018-09-29T17:25:07.313Z,16.74
2018-09-29T17:27:36.109Z,16.69
2018-09-29T17:30:06.910Z,16.64
2018-09-29T17:32:35.833Z,16.60
2018-09-29T17:35:05.052Z,16.50
2018-09-29T17:37:34.021Z,16.48
2018-09-29T17:40:03.008Z,16.40
2018-09-29T17:42:31.898Z,16.32
2018-09-29T17:45:00.739Z,16.24
2018-09-29T17:47:29.632Z,16.23
2018-09-29T17:49:58.453Z,16.25
2018-09-29T17:52:27.396Z,16.23
2018-09-29T17:54:56.851Z,16.13
2018-09-29T17:57:27.594Z,16.08
2018-09-29T18:00:15.367Z,16.04
2018-09-29T18:03:27.888Z,15.95
2018-09-29T18:05:56.881Z,15.98
2018-09-29T18:08:25.961Z,15.85
2018-09-29T18:10:55.548Z,15.80
2018-09-29T18:13:24.567Z,15.78
2018-09-29T18:15:53.549Z,15.75
2018-09-29T18:18:22.670Z,15.75
2018-09-29T18:20:51.567Z,15.62
2018-09-29T18:23:20.597Z,15.47
2018-09-29T18:25:49.506Z,15.37
2018-09-29T18:28:18.454Z,15.36
2018-09-29T18:30:47.338Z,15.34
2018-09-29T18:33:16.155Z,15.28
2018-09-29T18:35:45.034Z,15.20
2018-09-29T18:38:20.601Z,15.18
2018-09-29T18:40:49.588Z,15.14
2018-09-29T18:43:18.421Z,15.06
2018-09-29T18:45:47.297Z,14.98
2018-09-29T18:48:16.380Z,14.97
2018-09-29T18:50:45.659Z,14.84
2018-09-29T18:53:14.966Z,14.85
2018-09-29T18:55:43.964Z,14.83
2018-09-29T18:58:12.902Z,14.82
2018-09-29T19:00:41.911Z,14.79
2018-09-29T19:03:10.846Z,14.76
2018-09-29T19:05:46.420Z,14.74
2018-09-29T19:08:15.300Z,14.65
2018-09-29T19:10:44.171Z,14.58
2018-09-29T19:13:13.096Z,14.55
2018-09-29T19:15:41.987Z,14.52
2018-09-29T19:18:10.793Z,14.48
2018-09-29T19:20:39.737Z,14.50
2018-09-29T19:23:08.555Z,14.52
2018-09-29T19:25:37.486Z,14.41
2018-09-29T19:28:06.287Z,14.37
2018-09-29T19:30:35.099Z,14.38
2018-09-29T19:33:03.948Z,14.42
2018-09-29T19:35:32.848Z,14.47
2018-09-29T19:38:01.708Z,14.47
2018-09-29T19:40:30.509Z,14.46
2018-09-29T19:42:59.331Z,14.55
2018-09-29T19:45:28.259Z,14.49
2018-09-29T19:47:57.206Z,14.39
2018-09-29T19:50:26.120Z,14.33
2018-09-29T19:52:55.093Z,14.30
2018-09-29T19:55:23.921Z,14.32
2018-09-29T19:57:52.904Z,14.23
2018-09-29T20:00:21.739Z,14.28
2018-09-29T20:02:50.731Z,14.23
2018-09-29T20:05:19.602Z,14.24
2018-09-29T20:07:48.550Z,14.20
2018-09-29T20:10:17.605Z,14.15
2018-09-29T20:12:46.733Z,14.14
2018-09-29T20:15:16.077Z,14.08
2018-09-29T20:17:44.958Z,14.01
2018-09-29T20:20:13.882Z,13.98
2018-09-29T20:22:42.726Z,13.98
2018-09-29T20:25:12.250Z,13.92
2018-09-29T20:27:41.213Z,13.93
2018-09-29T20:30:10.224Z,13.96
2018-09-29T20:32:39.064Z,13.99
2018-09-29T20:35:08.393Z,13.96
2018-09-29T20:37:37.238Z,13.90
2018-09-29T20:40:06.208Z,13.83
2018-09-29T20:42:35.100Z,13.89
2018-09-29T20:45:04.010Z,13.92
2018-09-29T20:47:32.840Z,13.87
2018-09-29T20:50:01.714Z,13.94
2018-09-29T20:52:31.250Z,13.92
2018-09-29T20:55:00.317Z,13.88
2018-09-29T20:57:29.404Z,13.91
2018-09-29T20:59:58.486Z,13.80
2018-09-29T21:02:27.775Z,13.85
2018-09-29T21:04:56.820Z,13.88
2018-09-29T21:07:25.723Z,13.96
2018-09-29T21:09:54.578Z,13.95
2018-09-29T21:12:24.020Z,13.94
2018-09-29T21:14:52.875Z,13.89
2018-09-29T21:17:21.812Z,13.80
2018-09-29T21:19:50.692Z,13.77
2018-09-29T21:22:19.521Z,13.67
2018-09-29T21:24:48.395Z,13.71
2018-09-29T21:27:17.263Z,13.66
2018-09-29T21:29:46.052Z,13.65
2018-09-29T21:32:14.820Z,13.64
2018-09-29T21:34:43.612Z,13.66
2018-09-29T21:37:12.482Z,13.63
2018-09-29T21:39:41.722Z,13.61
2018-09-29T21:42:10.723Z,13.56
2018-09-29T21:44:39.765Z,13.54
2018-09-29T21:47:08.598Z,13.49
2018-09-29T21:49:37.387Z,13.49
2018-09-29T21:52:06.389Z,13.53
2018-09-29T21:54:35.297Z,13.58
2018-09-29T21:57:04.135Z,13.59
2018-09-29T21:59:33.000Z,13.57
2018-09-29T22:02:01.825Z,13.61
2018-09-29T22:04:30.683Z,13.54
2018-09-29T22:06:59.631Z,13.59
2018-09-29T22:09:28.441Z,13.64
2018-09-29T22:11:57.261Z,13.67
2018-09-29T22:14:26.057Z,13.68
2018-09-29T22:16:54.902Z,13.71
2018-09-29T22:19:23.724Z,13.72
2018-09-29T22:21:52.612Z,13.76
2018-09-29T22:24:21.431Z,13.76
2018-09-29T22:26:50.292Z,13.75
2018-09-29T22:29:19.109Z,13.74
2018-09-29T22:31:48.005Z,13.75
2018-09-29T22:34:16.969Z,13.75
2018-09-29T22:36:45.913Z,13.73
2018-09-29T22:39:14.779Z,13.74
2018-09-29T22:41:43.579Z,13.73
2018-09-29T22:44:12.516Z,13.65
2018-09-29T22:46:41.474Z,13.70
2018-09-29T22:49:10.328Z,13.78
2018-09-29T22:51:39.941Z,13.82
2018-09-29T22:54:08.720Z,13.88
2018-09-29T22:56:37.559Z,13.91
2018-09-29T22:59:06.411Z,13.97
2018-09-29T23:01:35.341Z,13.94
2018-09-29T23:04:04.214Z,13.98
2018-09-29T23:06:33.226Z,13.98
2018-09-29T23:09:02.059Z,14.00
2018-09-29T23:11:30.915Z,14.00
2018-09-29T23:14:00.060Z,13.97
2018-09-29T23:16:28.863Z,13.98
2018-09-29T23:18:57.752Z,13.98
2018-09-29T23:21:26.799Z,13.95
2018-09-29T23:23:55.680Z,13.95
2018-09-29T23:26:24.636Z,13.94
2018-09-29T23:28:53.431Z,13.95
2018-09-29T23:31:22.336Z,13.89
2018-09-29T23:33:51.176Z,13.93
2018-09-29T23:36:19.976Z,13.90
2018-09-29T23:38:48.964Z,13.86
2018-09-29T23:41:17.988Z,13.82
2018-09-29T23:43:46.947Z,13.79
2018-09-29T23:46:15.855Z,13.83
2018-09-29T23:48:44.721Z,13.79
2018-09-29T23:51:13.525Z,13.77
2018-09-29T23:53:42.359Z,13.74
2018-09-29T23:56:11.171Z,13.69
2018-09-29T23:58:40.040Z,13.68
